Kernville, California
Current Conditions -  °F | °C
As of 3:15 PM on Wednesday 26 Nov 2014 (Local Time) from KPTV Reporting Station
Clear Clear  
Wind Chill: 66°   Ceiling: Unl
Heat Index: 66°   Visibility: 5mi
Dew Point: 46°   Wind: 6mph
Humidity: 49%   Direction: 290°WNW
Pressure: 30.24"   Gusts: NA
Location:  35.75°N, 118.43°W
Report Text: KPTV 262315Z AUTO 29005KT 5SM CLR 19/08 A3024 RMK AO1
Loading
Personal Weather Stations






























Interactive Weather Map New forecast layout! Learn more

10-Day Weather Forecast

Advertisements
Track Severe Weather on mobile